createdAt,value
2022-07-30T00:00:52.510Z,1.60
2022-07-30T00:03:19.773Z,1.42
2022-07-30T00:05:46.945Z,1.50
2022-07-30T00:08:14.316Z,1.30
2022-07-30T00:10:41.541Z,1.30
2022-07-30T00:13:08.869Z,1.67
2022-07-30T00:15:41.529Z,1.67
2022-07-30T00:18:08.610Z,1.20
2022-07-30T00:20:35.830Z,1.73
2022-07-30T00:23:05.140Z,1.50
2022-07-30T00:25:32.370Z,1.50
2022-07-30T00:27:59.654Z,1.60
2022-07-30T00:30:26.868Z,1.42
2022-07-30T00:32:53.973Z,1.20
2022-07-30T00:35:21.052Z,1.48
2022-07-30T00:37:48.126Z,1.60
2022-07-30T00:40:15.310Z,1.30
2022-07-30T00:42:44.625Z,1.40
2022-07-30T00:45:12.663Z,1.40
2022-07-30T00:47:40.584Z,1.80
2022-07-30T00:50:10.262Z,1.55
2022-07-30T00:52:38.668Z,1.60
2022-07-30T00:55:07.532Z,1.60
2022-07-30T00:57:34.704Z,1.80
2022-07-30T01:00:02.040Z,1.90
2022-07-30T01:02:29.462Z,1.42
2022-07-30T01:04:56.608Z,1.45
2022-07-30T01:07:23.980Z,1.50
2022-07-30T01:09:54.382Z,1.60
2022-07-30T01:12:25.149Z,1.50
2022-07-30T01:14:53.905Z,1.65
2022-07-30T01:17:21.109Z,1.60
2022-07-30T01:19:49.976Z,1.45
2022-07-30T01:22:31.470Z,1.58
2022-07-30T01:27:28.974Z,1.50
2022-07-30T01:29:57.724Z,1.50
2022-07-30T01:32:26.804Z,1.50
2022-07-30T01:34:57.686Z,1.60
2022-07-30T01:37:25.968Z,1.77
2022-07-30T01:39:54.360Z,2.05
2022-07-30T01:42:25.178Z,1.90
2022-07-30T01:44:52.525Z,2.03
2022-07-30T01:47:22.511Z,2.08
2022-07-30T01:49:51.899Z,1.80
2022-07-30T01:52:21.124Z,2.10
2022-07-30T01:54:52.001Z,2.40
2022-07-30T01:57:20.902Z,1.92
2022-07-30T01:59:52.265Z,2.10
2022-07-30T02:02:19.691Z,1.90
2022-07-30T02:04:47.296Z,1.63
2022-07-30T02:07:20.150Z,2.00
2022-07-30T02:10:03.757Z,1.83
2022-07-30T02:12:32.806Z,1.70
2022-07-30T02:15:23.765Z,1.42
2022-07-30T02:17:55.830Z,1.98
2022-07-30T02:20:28.463Z,2.20
2022-07-30T02:23:02.360Z,2.05
2022-07-30T02:25:32.608Z,2.00
2022-07-30T02:28:06.073Z,1.90
2022-07-30T02:30:36.493Z,1.90
2022-07-30T02:33:06.348Z,1.48
2022-07-30T02:35:34.182Z,1.55
2022-07-30T02:38:02.183Z,1.40
2022-07-30T02:40:29.459Z,1.52
2022-07-30T02:42:57.878Z,1.58
2022-07-30T02:45:26.550Z,1.50
2022-07-30T02:48:02.551Z,1.60
2022-07-30T02:50:31.041Z,1.67
2022-07-30T02:53:00.673Z,1.65
2022-07-30T02:55:30.316Z,1.85
2022-07-30T02:57:58.901Z,1.73
2022-07-30T03:00:27.544Z,1.48
2022-07-30T03:02:57.063Z,1.80
2022-07-30T03:05:25.943Z,2.00
2022-07-30T03:07:56.631Z,1.85
2022-07-30T03:10:25.046Z,1.83
2022-07-30T03:12:53.289Z,1.85
2022-07-30T03:15:20.771Z,1.80
2022-07-30T03:17:52.368Z,1.70
2022-07-30T03:20:26.238Z,1.83
2022-07-30T03:22:55.367Z,1.77
2022-07-30T03:25:28.752Z,2.17
2022-07-30T03:28:00.563Z,1.80
2022-07-30T03:30:28.582Z,1.80
2022-07-30T03:32:56.908Z,2.00
2022-07-30T03:35:31.271Z,1.77
2022-07-30T03:38:00.267Z,1.67
2022-07-30T03:40:28.610Z,1.85
2022-07-30T03:42:56.309Z,2.08
2022-07-30T03:45:24.077Z,1.90
2022-07-30T03:47:52.211Z,1.50
2022-07-30T03:50:19.342Z,2.15
2022-07-30T03:52:46.745Z,1.60
2022-07-30T03:55:14.306Z,1.55
2022-07-30T03:57:41.445Z,1.70
2022-07-30T04:00:14.754Z,2.15
2022-07-30T04:02:46.335Z,1.70
2022-07-30T04:05:14.824Z,1.70
2022-07-30T04:07:45.247Z,1.60
2022-07-30T04:10:13.694Z,1.80
2022-07-30T04:12:41.177Z,1.70
2022-07-30T04:16:16.709Z,1.80
2022-07-30T04:18:02.596Z,1.73
2022-07-30T04:20:40.016Z,1.48
2022-07-30T04:23:08.289Z,1.88
2022-07-30T04:25:35.374Z,1.63
2022-07-30T04:28:05.166Z,1.60
2022-07-30T04:30:36.376Z,2.05
2022-07-30T04:33:04.872Z,1.80
2022-07-30T04:35:51.256Z,1.85
2022-07-30T04:38:19.837Z,1.80
2022-07-30T04:40:47.265Z,1.95
2022-07-30T04:43:14.562Z,1.90
2022-07-30T04:45:42.471Z,1.75
2022-07-30T04:48:09.836Z,1.63
2022-07-30T04:50:41.059Z,1.80
2022-07-30T04:53:08.570Z,1.77
2022-07-30T04:55:39.350Z,2.03
2022-07-30T04:58:07.485Z,1.88
2022-07-30T05:00:40.803Z,2.08
2022-07-30T05:03:11.908Z,1.70
2022-07-30T05:05:40.803Z,1.73
2022-07-30T05:08:08.175Z,1.63
2022-07-30T05:10:35.304Z,1.35
2022-07-30T05:13:02.466Z,1.90
2022-07-30T05:15:36.902Z,1.75
2022-07-30T05:18:04.895Z,1.67
2022-07-30T05:20:32.065Z,1.83
2022-07-30T05:22:59.118Z,1.70
2022-07-30T05:25:26.324Z,2.00
2022-07-30T05:27:53.418Z,1.88
2022-07-30T05:30:22.255Z,1.60
2022-07-30T05:32:56.010Z,1.73
2022-07-30T05:35:23.531Z,1.85
2022-07-30T05:37:50.628Z,1.60
2022-07-30T05:40:17.833Z,1.73
2022-07-30T05:42:44.989Z,1.60
2022-07-30T05:45:12.129Z,1.60
2022-07-30T05:47:39.249Z,1.73
2022-07-30T05:50:06.724Z,1.70
2022-07-30T05:52:34.650Z,1.63
2022-07-30T05:55:01.895Z,1.60
2022-07-30T05:57:29.056Z,1.70
2022-07-30T05:59:56.096Z,1.38
2022-07-30T06:02:24.473Z,1.50
2022-07-30T06:04:52.433Z,1.63
2022-07-30T06:07:19.571Z,1.50
2022-07-30T06:09:46.810Z,1.60
2022-07-30T06:12:13.944Z,1.23
2022-07-30T06:14:41.110Z,1.65
2022-07-30T06:17:08.318Z,1.30
2022-07-30T06:19:35.393Z,1.58
2022-07-30T06:22:06.723Z,1.20
2022-07-30T06:24:34.755Z,1.23
2022-07-30T06:27:02.231Z,1.30
2022-07-30T06:29:29.576Z,1.52
2022-07-30T06:31:56.915Z,1.38
2022-07-30T06:34:23.948Z,1.35
2022-07-30T06:36:51.340Z,1.38
2022-07-30T06:39:53.798Z,0.90
2022-07-30T06:42:05.827Z,1.45
2022-07-30T06:44:32.985Z,1.17
2022-07-30T06:47:05.225Z,1.10
2022-07-30T06:49:35.693Z,1.00
2022-07-30T06:52:03.681Z,0.93
2022-07-30T06:54:30.842Z,1.05
2022-07-30T06:56:58.265Z,1.27
2022-07-30T06:59:27.684Z,1.00
2022-07-30T07:01:54.771Z,1.00
2022-07-30T07:04:22.071Z,1.02
2022-07-30T07:06:49.221Z,1.00
2022-07-30T07:09:16.251Z,1.08
2022-07-30T07:11:43.751Z,0.90
2022-07-30T07:14:10.806Z,0.90
2022-07-30T07:16:37.913Z,0.80
2022-07-30T07:19:05.126Z,1.17
2022-07-30T07:21:32.261Z,1.00
2022-07-30T07:24:00.726Z,0.88
2022-07-30T07:26:27.833Z,0.70
2022-07-30T07:28:54.957Z,1.00
2022-07-30T07:32:05.641Z,0.90
2022-07-30T07:34:13.136Z,0.95
2022-07-30T07:36:42.557Z,0.85
2022-07-30T07:39:13.083Z,0.82
2022-07-30T07:41:48.320Z,0.80
2022-07-30T07:44:16.499Z,0.80
2022-07-30T07:46:43.702Z,0.95
2022-07-30T07:49:10.976Z,0.88
2022-07-30T07:51:47.245Z,0.82
2022-07-30T07:54:21.713Z,1.00
2022-07-30T07:56:52.753Z,1.00
2022-07-30T07:59:20.592Z,0.88
2022-07-30T08:01:47.765Z,0.70
2022-07-30T08:04:17.841Z,1.10
2022-07-30T08:06:45.340Z,1.15
2022-07-30T08:09:12.438Z,0.93
2022-07-30T08:11:39.715Z,1.00
2022-07-30T08:14:06.767Z,0.90
2022-07-30T08:16:33.862Z,0.80
2022-07-30T08:19:01.053Z,0.98
2022-07-30T08:21:28.133Z,1.00
2022-07-30T08:23:55.157Z,1.00
2022-07-30T08:26:22.369Z,0.80
2022-07-30T08:28:49.498Z,0.85
2022-07-30T08:31:17.276Z,0.90
2022-07-30T08:33:44.530Z,0.93
2022-07-30T08:36:11.632Z,0.80
2022-07-30T08:38:39.276Z,0.82
2022-07-30T08:41:06.717Z,0.80
2022-07-30T08:43:34.996Z,1.20
2022-07-30T08:46:04.220Z,1.00
2022-07-30T08:48:31.616Z,0.93
2022-07-30T08:50:59.687Z,0.90
2022-07-30T08:53:27.674Z,1.00
2022-07-30T08:55:58.542Z,1.10
2022-07-30T08:58:31.816Z,0.75
2022-07-30T09:00:58.938Z,0.82
2022-07-30T09:03:26.001Z,0.85
2022-07-30T09:05:53.187Z,1.08
2022-07-30T09:08:20.325Z,1.00
2022-07-30T09:10:53.070Z,1.00
2022-07-30T09:13:31.677Z,1.10
2022-07-30T09:15:59.616Z,0.90
2022-07-30T09:18:40.910Z,0.80
2022-07-30T09:21:25.022Z,1.17
2022-07-30T09:23:58.167Z,0.85
2022-07-30T09:26:25.523Z,1.27
2022-07-30T09:28:52.826Z,1.10
2022-07-30T09:31:21.442Z,1.10
2022-07-30T09:33:49.143Z,0.98
2022-07-30T09:36:18.205Z,0.95
2022-07-30T09:38:53.883Z,1.17
2022-07-30T09:41:39.591Z,1.15
2022-07-30T09:44:07.317Z,1.40
2022-07-30T09:46:45.545Z,1.35
2022-07-30T09:49:21.973Z,1.05
2022-07-30T09:51:57.040Z,1.00
2022-07-30T09:54:51.866Z,0.95
2022-07-30T09:57:26.709Z,1.10
2022-07-30T10:00:24.017Z,1.35
2022-07-30T10:02:52.453Z,1.10
2022-07-30T10:05:20.664Z,1.17
2022-07-30T10:07:53.110Z,1.48
2022-07-30T10:10:25.514Z,1.10
2022-07-30T10:12:59.768Z,1.00
2022-07-30T10:15:33.060Z,1.48
2022-07-30T10:18:06.389Z,1.13
2022-07-30T10:20:33.902Z,1.17
2022-07-30T10:23:07.746Z,1.17
2022-07-30T10:25:36.657Z,0.98
2022-07-30T10:28:05.648Z,1.00
2022-07-30T10:30:34.037Z,0.98
2022-07-30T10:33:02.186Z,1.35
2022-07-30T10:35:34.603Z,0.82
2022-07-30T10:38:13.733Z,1.38
2022-07-30T10:40:58.861Z,1.23
2022-07-30T10:44:01.618Z,1.25
2022-07-30T10:47:07.281Z,1.05
2022-07-30T10:49:41.374Z,1.00
2022-07-30T10:52:11.029Z,0.90
2022-07-30T10:54:47.479Z,0.80
2022-07-30T10:57:22.715Z,1.00
2022-07-30T11:00:00.005Z,1.10
2022-07-30T11:02:35.385Z,0.90
2022-07-30T11:05:27.247Z,0.93
2022-07-30T11:08:32.087Z,1.08
2022-07-30T11:11:19.600Z,0.90
2022-07-30T11:13:59.838Z,1.00
2022-07-30T11:16:33.207Z,1.00
2022-07-30T11:19:55.905Z,0.82
2022-07-30T11:22:25.609Z,1.00
2022-07-30T11:24:53.483Z,0.90
2022-07-30T11:27:46.054Z,1.20
2022-07-30T11:30:17.012Z,1.00
2022-07-30T11:32:45.114Z,1.00
2022-07-30T11:35:25.595Z,0.90
2022-07-30T11:38:05.040Z,1.55
2022-07-30T11:43:34.564Z,1.00
2022-07-30T11:46:29.997Z,0.90
2022-07-30T11:49:05.225Z,1.00
2022-07-30T11:51:43.227Z,0.88
2022-07-30T11:54:11.840Z,1.10
2022-07-30T11:56:53.816Z,1.38
2022-07-30T11:59:21.122Z,1.02
2022-07-30T12:01:57.177Z,1.30
2022-07-30T12:04:24.737Z,0.77
2022-07-30T12:06:51.887Z,1.20
2022-07-30T12:09:27.574Z,1.30
2022-07-30T12:11:55.912Z,0.80
2022-07-30T12:14:23.219Z,1.17
2022-07-30T12:16:52.229Z,1.13
2022-07-30T12:19:19.742Z,0.93
2022-07-30T12:21:50.976Z,1.20
2022-07-30T12:24:26.560Z,1.38
2022-07-30T12:27:03.806Z,1.10
2022-07-30T12:29:32.491Z,1.15
2022-07-30T12:31:59.731Z,1.10
2022-07-30T12:34:27.763Z,1.17
2022-07-30T12:36:55.058Z,1.17
2022-07-30T12:39:24.764Z,1.27
2022-07-30T12:41:53.581Z,1.15
2022-07-30T12:44:36.060Z,1.02
2022-07-30T12:47:05.824Z,1.08
2022-07-30T12:49:39.392Z,1.20
2022-07-30T12:52:27.790Z,1.15
2022-07-30T12:55:09.549Z,1.00
2022-07-30T12:57:56.554Z,1.00
2022-07-30T13:00:25.694Z,0.85
2022-07-30T13:02:53.219Z,1.15
2022-07-30T13:05:20.673Z,0.82
2022-07-30T13:07:58.773Z,0.85
2022-07-30T13:10:30.768Z,1.00
2022-07-30T13:12:59.375Z,1.40
2022-07-30T13:15:26.647Z,1.05
2022-07-30T13:17:53.762Z,1.00
2022-07-30T13:20:21.336Z,1.10
2022-07-30T13:22:48.448Z,0.90
2022-07-30T13:25:15.750Z,0.98
2022-07-30T13:27:42.903Z,1.20
2022-07-30T13:30:10.939Z,0.95
2022-07-30T13:32:38.040Z,1.10
2022-07-30T13:35:05.528Z,0.90
2022-07-30T13:37:36.155Z,0.70
2022-07-30T13:40:06.507Z,1.10
2022-07-30T13:42:33.721Z,0.93
2022-07-30T13:45:01.170Z,0.93
2022-07-30T13:47:29.352Z,0.98
2022-07-30T13:49:56.649Z,1.10
2022-07-30T13:52:23.964Z,1.00
2022-07-30T13:54:52.548Z,0.90
2022-07-30T13:57:20.313Z,0.90
2022-07-30T13:59:47.357Z,0.82
2022-07-30T14:02:14.483Z,0.82
2022-07-30T14:04:41.570Z,0.85
2022-07-30T14:07:08.651Z,0.90
2022-07-30T14:09:44.626Z,1.00
2022-07-30T14:12:14.295Z,1.10
2022-07-30T14:14:41.366Z,0.95
2022-07-30T14:17:08.576Z,0.80
2022-07-30T14:19:35.769Z,0.98
2022-07-30T14:22:02.885Z,1.08
2022-07-30T14:24:29.940Z,0.82
2022-07-30T14:26:58.316Z,0.65
2022-07-30T14:29:26.995Z,0.77
2022-07-30T14:31:54.594Z,0.90
2022-07-30T14:34:21.895Z,0.90
2022-07-30T14:36:48.951Z,0.90
2022-07-30T14:39:16.012Z,1.10
2022-07-30T14:41:43.426Z,0.80
2022-07-30T14:44:12.464Z,1.40
2022-07-30T14:46:52.489Z,0.90
2022-07-30T14:49:27.484Z,0.77
2022-07-30T14:51:54.868Z,0.80
2022-07-30T14:54:22.839Z,0.90
2022-07-30T14:56:54.890Z,1.08
2022-07-30T14:59:25.755Z,1.00
2022-07-30T15:01:52.939Z,1.42
2022-07-30T15:04:20.247Z,0.95
2022-07-30T15:06:47.507Z,0.70
2022-07-30T15:09:14.735Z,0.90
2022-07-30T15:12:07.619Z,1.02
2022-07-30T15:14:29.033Z,0.88
2022-07-30T15:17:02.050Z,0.90
2022-07-30T15:19:31.278Z,1.20
2022-07-30T15:21:59.310Z,1.20
2022-07-30T15:24:26.930Z,0.90
2022-07-30T15:26:56.031Z,0.70
2022-07-30T15:29:24.363Z,0.88
2022-07-30T15:31:52.209Z,0.95
2022-07-30T15:34:19.576Z,0.80
2022-07-30T15:36:46.718Z,0.70
2022-07-30T15:39:13.751Z,1.00
2022-07-30T15:41:42.831Z,0.60
2022-07-30T15:44:10.297Z,1.00
2022-07-30T15:46:38.686Z,1.00
2022-07-30T15:49:07.404Z,1.00
2022-07-30T15:51:35.547Z,0.95
2022-07-30T15:54:02.630Z,0.95
2022-07-30T15:56:31.374Z,0.95
2022-07-30T15:58:58.844Z,1.08
2022-07-30T16:01:25.992Z,0.80
2022-07-30T16:03:55.264Z,1.00
2022-07-30T16:06:22.375Z,0.90
2022-07-30T16:08:49.466Z,0.90
2022-07-30T16:11:16.699Z,0.98
2022-07-30T16:13:43.830Z,0.80
2022-07-30T16:16:10.911Z,1.10
2022-07-30T16:18:38.005Z,0.90
2022-07-30T16:21:05.070Z,0.85
2022-07-30T16:23:36.251Z,1.13
2022-07-30T16:26:04.307Z,0.90
2022-07-30T16:28:31.787Z,0.93
2022-07-30T16:30:58.945Z,0.82
2022-07-30T16:33:26.071Z,0.90
2022-07-30T16:35:53.908Z,0.95
2022-07-30T16:38:23.293Z,1.10
2022-07-30T16:40:50.595Z,0.70
2022-07-30T16:43:19.698Z,1.00
2022-07-30T16:45:47.684Z,0.77
2022-07-30T16:48:14.863Z,0.82
2022-07-30T16:50:42.784Z,0.95
2022-07-30T16:53:14.194Z,0.90
2022-07-30T16:55:44.915Z,1.17
2022-07-30T16:58:13.427Z,0.90
2022-07-30T17:00:41.056Z,0.90
2022-07-30T17:03:08.624Z,0.80
2022-07-30T17:05:37.844Z,0.80
2022-07-30T17:08:12.919Z,0.85
2022-07-30T17:10:41.002Z,0.88
2022-07-30T17:13:08.092Z,1.00
2022-07-30T17:15:35.369Z,0.80
2022-07-30T17:18:03.007Z,0.75
2022-07-30T17:20:31.410Z,0.80
2022-07-30T17:22:58.975Z,0.80
2022-07-30T17:25:29.997Z,0.90
2022-07-30T17:27:58.491Z,0.75
2022-07-30T17:30:27.388Z,0.68
2022-07-30T17:32:54.493Z,1.08
2022-07-30T17:35:21.801Z,0.90
2022-07-30T17:37:48.957Z,0.90
2022-07-30T17:40:29.370Z,0.90
2022-07-30T17:43:06.183Z,0.82
2022-07-30T17:45:35.564Z,0.82
2022-07-30T17:48:03.292Z,0.80
2022-07-30T17:50:32.554Z,0.80
2022-07-30T17:53:00.495Z,0.70
2022-07-30T17:55:31.719Z,0.80
2022-07-30T17:57:58.793Z,0.70
2022-07-30T18:00:25.944Z,0.80
2022-07-30T18:02:53.468Z,0.90
2022-07-30T18:05:20.738Z,0.75
2022-07-30T18:07:48.161Z,0.77
2022-07-30T18:10:15.273Z,0.82
2022-07-30T18:12:48.474Z,1.60
2022-07-30T18:15:15.905Z,1.20
2022-07-30T18:17:42.965Z,0.85
2022-07-30T18:20:10.478Z,0.63
2022-07-30T18:22:37.899Z,0.80
2022-07-30T18:25:17.994Z,0.75
2022-07-30T18:27:47.348Z,0.70
2022-07-30T18:30:15.232Z,0.80
2022-07-30T18:32:42.320Z,0.68
2022-07-30T18:35:13.855Z,1.00
2022-07-30T18:37:42.596Z,0.70
2022-07-30T18:40:11.039Z,0.70
2022-07-30T18:42:38.092Z,1.10
2022-07-30T18:45:06.392Z,0.90
2022-07-30T18:47:33.449Z,0.73
2022-07-30T18:50:00.782Z,1.05
2022-07-30T18:52:28.041Z,0.73
2022-07-30T18:54:55.071Z,0.68
2022-07-30T18:57:22.128Z,0.80
2022-07-30T18:59:49.221Z,0.90
2022-07-30T19:02:16.265Z,0.75
2022-07-30T19:04:43.421Z,1.05
2022-07-30T19:07:10.587Z,0.85
2022-07-30T19:09:37.810Z,1.10
2022-07-30T19:12:05.589Z,0.90
2022-07-30T19:14:33.135Z,0.70
2022-07-30T19:17:00.438Z,0.90
2022-07-30T19:19:28.283Z,0.77
2022-07-30T19:21:55.560Z,1.00
2022-07-30T19:24:23.103Z,0.80
2022-07-30T19:26:54.322Z,1.00
2022-07-30T19:29:21.528Z,0.95
2022-07-30T19:31:50.210Z,0.73
2022-07-30T19:34:17.335Z,1.00
2022-07-30T19:36:44.425Z,1.08
2022-07-30T19:39:21.222Z,1.10
2022-07-30T19:41:50.775Z,0.80
2022-07-30T19:44:18.937Z,0.95
2022-07-30T19:46:46.502Z,1.13
2022-07-30T19:49:17.411Z,1.17
2022-07-30T19:52:10.832Z,0.70
2022-07-30T19:54:34.538Z,1.13
2022-07-30T19:57:04.276Z,1.08
2022-07-30T20:02:18.478Z,0.90
2022-07-30T20:04:45.700Z,0.90
2022-07-30T20:07:12.795Z,0.80
2022-07-30T20:09:42.997Z,1.10
2022-07-30T20:14:43.318Z,1.05
2022-07-30T20:17:10.796Z,1.13
2022-07-30T20:19:38.131Z,0.98
2022-07-30T20:22:15.506Z,1.17
2022-07-30T20:24:42.542Z,1.00
2022-07-30T20:27:10.168Z,0.93
2022-07-30T20:29:56.983Z,1.08
2022-07-30T20:32:24.833Z,1.02
2022-07-30T20:34:52.233Z,1.33
2022-07-30T20:37:22.501Z,1.13
2022-07-30T20:39:50.295Z,1.00
2022-07-30T20:42:17.562Z,0.82
2022-07-30T20:44:50.685Z,0.88
2022-07-30T20:47:34.672Z,1.20
2022-07-30T20:50:10.680Z,0.93
2022-07-30T20:52:40.495Z,1.08
2022-07-30T20:55:09.159Z,0.70
2022-07-30T20:57:56.011Z,0.98
2022-07-30T21:00:25.491Z,1.33
2022-07-30T21:02:52.592Z,1.02
2022-07-30T21:05:19.846Z,0.93
2022-07-30T21:07:47.314Z,1.08
2022-07-30T21:10:14.695Z,0.80
2022-07-30T21:12:44.838Z,1.00
2022-07-30T21:15:23.565Z,0.80
2022-07-30T21:20:27.773Z,0.80
2022-07-30T21:23:02.639Z,1.10
2022-07-30T21:25:32.532Z,1.10
2022-07-30T21:28:02.726Z,0.90
2022-07-30T21:30:31.220Z,1.10
2022-07-30T21:32:59.927Z,1.50
2022-07-30T21:35:32.051Z,1.45
2022-07-30T21:38:14.777Z,0.93
2022-07-30T21:40:42.080Z,1.13
2022-07-30T21:43:09.771Z,1.00
2022-07-30T21:45:39.504Z,1.20
2022-07-30T21:48:09.143Z,0.98
2022-07-30T21:53:05.358Z,1.02
2022-07-30T21:55:33.479Z,1.02
2022-07-30T21:58:25.812Z,1.13
2022-07-30T22:00:55.342Z,1.13
2022-07-30T22:04:03.112Z,1.20
2022-07-30T22:06:12.714Z,1.10
2022-07-30T22:08:40.285Z,1.10
2022-07-30T22:11:08.885Z,1.10
2022-07-30T22:13:51.450Z,1.20
2022-07-30T22:16:22.036Z,0.90
2022-07-30T22:18:50.545Z,1.42
2022-07-30T22:21:19.426Z,1.40
2022-07-30T22:23:58.291Z,1.30
2022-07-30T22:26:27.013Z,1.60
2022-07-30T22:28:54.546Z,1.85
2022-07-30T22:31:22.003Z,1.27
2022-07-30T22:33:49.808Z,1.30
2022-07-30T22:36:19.886Z,0.95
2022-07-30T22:38:58.740Z,1.27
2022-07-30T22:41:28.818Z,1.42
2022-07-30T22:43:56.247Z,1.20
2022-07-30T22:46:30.933Z,1.20
2022-07-30T22:48:59.154Z,1.23
2022-07-30T22:52:01.000Z,1.52
2022-07-30T22:54:14.296Z,1.20
2022-07-30T22:56:42.751Z,1.20
2022-07-30T22:59:13.392Z,1.20
2022-07-30T23:01:43.532Z,1.38
2022-07-30T23:04:10.838Z,1.15
2022-07-30T23:06:37.964Z,1.40
2022-07-30T23:09:10.134Z,1.25
2022-07-30T23:11:38.933Z,1.45
2022-07-30T23:12:15.621Z,1.20
2022-07-30T23:14:11.296Z,1.23
2022-07-30T23:16:39.417Z,1.20
2022-07-30T23:19:07.073Z,1.20
2022-07-30T23:21:35.074Z,1.27
2022-07-30T23:24:02.278Z,1.10
2022-07-30T23:26:29.388Z,1.40
2022-07-30T23:28:56.560Z,1.08
2022-07-30T23:31:26.783Z,1.33
2022-07-30T23:33:54.172Z,1.20
2022-07-30T23:36:21.631Z,1.10
2022-07-30T23:38:48.813Z,0.90
2022-07-30T23:41:29.867Z,1.30
2022-07-30T23:43:57.968Z,1.08
2022-07-30T23:46:25.217Z,1.33
2022-07-30T23:48:53.609Z,1.20
2022-07-30T23:51:20.775Z,1.15
2022-07-30T23:53:48.205Z,1.20
2022-07-30T23:56:16.189Z,1.38
2022-07-30T23:58:46.097Z,1.48
